4XADI LLHZ-LLHZ

Flight info

Callsign 4XADI
Flight time 0h 7m
Altitude 800
Route CIRCUITS
Aircraft C172/L-C/5100

Departure

Time 2026-04-12 18:57
Airport Herzliya Airport (LLHZ)

Arrival

Time 2026-04-12 19:05
Airport Herzliya Airport (LLHZ)
Time Latitude Longitude Altitude Speed Heading
2026-04-12 18:20 32.17905 34.83743 118 ft 0 kts 137°
2026-04-12 18:34 32.17911 34.83759 118 ft 5 kts 315°
2026-04-12 18:34 32.17921 34.83718 116 ft 0 kts 290°
2026-04-12 18:35 32.17923 34.83711 116 ft 7 kts 287°
2026-04-12 18:35 32.17944 34.83619 110 ft 16 kts 286°
2026-04-12 18:36 32.17971 34.83513 104 ft 22 kts 292°
2026-04-12 18:37 32.18123 34.83003 91 ft 7 kts 283°
2026-04-12 18:37 32.18127 34.82987 89 ft 0 kts 287°
2026-04-12 18:38 32.18163 34.82948 87 ft 3 kts 28°
2026-04-12 18:38 32.18170 34.83012 91 ft 16 kts 120°
2026-04-12 18:39 32.18144 34.83081 93 ft 19 kts 108°
2026-04-12 18:39 32.18093 34.83254 93 ft 25 kts 111°
2026-04-12 18:39 32.18035 34.83460 103 ft 27 kts 108°
2026-04-12 18:39 32.17973 34.83680 113 ft 26 kts 107°
2026-04-12 18:40 32.17951 34.83754 115 ft 18 kts 113°
2026-04-12 18:40 32.17896 34.83830 120 ft 0 kts 164°
2026-04-12 18:40 32.17888 34.83834 120 ft 0 kts 144°
2026-04-12 18:41 32.17886 34.83835 119 ft 0 kts 149°
2026-04-12 18:41 32.17875 34.83853 121 ft 0 kts 80°
2026-04-12 18:43 32.17878 34.83860 121 ft 5 kts 42°
2026-04-12 18:43 32.17891 34.83804 119 ft 19 kts 282°
2026-04-12 18:44 32.17919 34.83701 114 ft 21 kts 287°
2026-04-12 18:44 32.17978 34.83491 103 ft 9 kts 298°
2026-04-12 18:44 32.17988 34.83462 102 ft 4 kts 289°
2026-04-12 18:44 32.17997 34.83432 101 ft 8 kts 293°
2026-04-12 18:45 32.18014 34.83380 99 ft 11 kts 290°
2026-04-12 18:45 32.18028 34.83332 97 ft 1 kts 288°
2026-04-12 18:45 32.18040 34.83284 95 ft 2 kts 290°
2026-04-12 18:45 32.18070 34.83190 93 ft 15 kts 288°
2026-04-12 18:46 32.18092 34.83094 92 ft 0 kts 287°
2026-04-12 18:46 32.18100 34.83074 91 ft 8 kts 295°
2026-04-12 18:46 32.18122 34.83027 92 ft 13 kts 300°
2026-04-12 18:46 32.18144 34.82954 88 ft 2 kts 289°
2026-04-12 18:47 32.18164 34.82951 87 ft 0 kts 51°
2026-04-12 18:56 32.18170 34.82960 88 ft 1 kts 59°
2026-04-12 18:56 32.18164 34.83007 90 ft 23 kts 109°
2026-04-12 18:56 32.18053 34.83387 126 ft 64 kts 107°
2026-04-12 18:56 32.17924 34.83849 359 ft 59 kts 106°
2026-04-12 18:57 32.17779 34.84363 465 ft 75 kts 105°
2026-04-12 18:57 32.17788 34.84934 660 ft 72 kts 50°
2026-04-12 18:57 32.18177 34.85243 895 ft 64 kts 13°
2026-04-12 18:57 32.18613 34.85161 1054 ft 60 kts 324°
2026-04-12 18:58 32.18962 34.84862 985 ft 63 kts 319°
2026-04-12 18:58 32.19248 34.84524 893 ft 58 kts 312°
2026-04-12 18:58 32.19516 34.84165 788 ft 67 kts 308°
2026-04-12 18:58 32.19739 34.83722 927 ft 62 kts 296°
2026-04-12 18:59 32.19916 34.83286 999 ft 66 kts 289°
2026-04-12 18:59 32.20083 34.82799 1116 ft 59 kts 283°
2026-04-12 18:59 32.20087 34.82345 1160 ft 67 kts 242°
2026-04-12 18:59 32.19771 34.81930 1155 ft 59 kts 220°
2026-04-12 19:00 32.19443 34.81673 1042 ft 67 kts 207°
2026-04-12 19:00 32.19030 34.81461 1037 ft 62 kts 203°
2026-04-12 19:00 32.18654 34.81554 948 ft 58 kts 141°
2026-04-12 19:00 32.18458 34.82001 628 ft 65 kts 108°
2026-04-12 19:01 32.18330 34.82510 328 ft 64 kts 110°
2026-04-12 19:01 32.18178 34.82986 104 ft 63 kts 113°
2026-04-12 19:01 32.18035 34.83462 103 ft 62 kts 105°
2026-04-12 19:01 32.17870 34.83968 257 ft 70 kts 111°
2026-04-12 19:02 32.17693 34.84475 511 ft 59 kts 116°
2026-04-12 19:02 32.17714 34.84906 695 ft 57 kts 55°
2026-04-12 19:02 32.18054 34.85205 831 ft 62 kts 24°
2026-04-12 19:02 32.18449 34.85168 1023 ft 62 kts 328°
2026-04-12 19:03 32.18852 34.84824 902 ft 79 kts 317°
2026-04-12 19:03 32.19269 34.84355 781 ft 85 kts 314°
2026-04-12 19:03 32.19596 34.83923 981 ft 65 kts 305°
2026-04-12 19:03 32.19862 34.83447 988 ft 71 kts 300°
2026-04-12 19:04 32.20076 34.82949 1049 ft 61 kts 285°
2026-04-12 19:04 32.20092 34.82478 1091 ft 62 kts 258°
2026-04-12 19:04 32.19929 34.81986 1103 ft 69 kts 237°
2026-04-12 19:04 32.19567 34.81638 1031 ft 62 kts 204°
2026-04-12 19:05 32.19199 34.81514 978 ft 49 kts 169°
2026-04-12 19:05 32.18819 34.81756 745 ft 66 kts 145°
2026-04-12 19:05 32.18478 34.82170 448 ft 69 kts 122°
2026-04-12 19:05 32.18289 34.82633 258 ft 59 kts 111°
2026-04-12 19:06 32.18151 34.83071 104 ft 50 kts 106°
2026-04-12 19:06 32.18070 34.83333 96 ft 11 kts 112°
2026-04-12 19:06 32.18050 34.83392 100 ft 8 kts 117°
2026-04-12 19:06 32.17995 34.83490 103 ft 11 kts 130°
2026-04-12 19:07 32.17969 34.83554 106 ft 6 kts 111°
2026-04-12 19:07 32.17955 34.83599 109 ft 6 kts 116°
2026-04-12 19:07 32.17922 34.83637 112 ft 4 kts 128°
2026-04-12 19:07 32.17920 34.83643 112 ft 0 kts 94°